sensor_id;sensor_type;location;lat;lon;timestamp;temperature;humidity
74336;DHT22;62755;-33.398;-70.572;2022-11-25T00:01:59;27.50;39.30
74336;DHT22;62755;-33.398;-70.572;2022-11-25T00:04:28;27.60;39.30
74336;DHT22;62755;-33.398;-70.572;2022-11-25T00:07:04;27.60;39.40
74336;DHT22;62755;-33.398;-70.572;2022-11-25T00:09:34;27.50;39.50
74336;DHT22;62755;-33.398;-70.572;2022-11-25T00:12:04;27.50;39.50
74336;DHT22;62755;-33.398;-70.572;2022-11-25T00:14:34;27.50;39.50
74336;DHT22;62755;-33.398;-70.572;2022-11-25T00:17:03;27.50;39.60
74336;DHT22;62755;-33.398;-70.572;2022-11-25T00:19:33;27.50;39.60
74336;DHT22;62755;-33.398;-70.572;2022-11-25T00:22:04;27.50;39.60
74336;DHT22;62755;-33.398;-70.572;2022-11-25T00:24:34;27.50;39.70
74336;DHT22;62755;-33.398;-70.572;2022-11-25T00:27:04;27.50;39.70
74336;DHT22;62755;-33.398;-70.572;2022-11-25T00:29:33;27.50;39.60
74336;DHT22;62755;-33.398;-70.572;2022-11-25T00:32:03;27.50;39.50
74336;DHT22;62755;-33.398;-70.572;2022-11-25T00:34:33;27.50;39.50
74336;DHT22;62755;-33.398;-70.572;2022-11-25T00:37:04;27.40;39.60
74336;DHT22;62755;-33.398;-70.572;2022-11-25T00:39:34;27.30;39.80
74336;DHT22;62755;-33.398;-70.572;2022-11-25T00:42:04;27.30;39.90
74336;DHT22;62755;-33.398;-70.572;2022-11-25T00:44:49;27.30;39.90
74336;DHT22;62755;-33.398;-70.572;2022-11-25T00:47:20;27.30;40.10
74336;DHT22;62755;-33.398;-70.572;2022-11-25T00:49:51;27.30;39.80
74336;DHT22;62755;-33.398;-70.572;2022-11-25T00:52:24;27.30;39.80
74336;DHT22;62755;-33.398;-70.572;2022-11-25T00:54:54;27.20;39.90
74336;DHT22;62755;-33.398;-70.572;2022-11-25T00:57:24;27.10;40.00
74336;DHT22;62755;-33.398;-70.572;2022-11-25T00:59:53;27.10;40.10
74336;DHT22;62755;-33.398;-70.572;2022-11-25T01:02:23;27.10;40.10
74336;DHT22;62755;-33.398;-70.572;2022-11-25T01:04:52;27.10;40.20
74336;DHT22;62755;-33.398;-70.572;2022-11-25T01:07:24;27.10;40.30
74336;DHT22;62755;-33.398;-70.572;2022-11-25T01:09:53;27.10;40.30
74336;DHT22;62755;-33.398;-70.572;2022-11-25T01:12:23;27.20;40.20
74336;DHT22;62755;-33.398;-70.572;2022-11-25T01:14:52;27.20;40.20
74336;DHT22;62755;-33.398;-70.572;2022-11-25T01:17:22;27.20;40.20
74336;DHT22;62755;-33.398;-70.572;2022-11-25T01:19:52;27.20;40.20
74336;DHT22;62755;-33.398;-70.572;2022-11-25T01:22:23;27.20;40.30
74336;DHT22;62755;-33.398;-70.572;2022-11-25T01:24:53;27.10;40.30
74336;DHT22;62755;-33.398;-70.572;2022-11-25T01:27:24;27.10;40.40
74336;DHT22;62755;-33.398;-70.572;2022-11-25T01:29:54;27.10;40.40
74336;DHT22;62755;-33.398;-70.572;2022-11-25T01:32:24;27.10;40.30
74336;DHT22;62755;-33.398;-70.572;2022-11-25T01:34:53;27.10;40.30
74336;DHT22;62755;-33.398;-70.572;2022-11-25T01:37:25;27.00;40.20
74336;DHT22;62755;-33.398;-70.572;2022-11-25T01:39:54;27.00;40.30
74336;DHT22;62755;-33.398;-70.572;2022-11-25T01:42:28;26.90;40.30
74336;DHT22;62755;-33.398;-70.572;2022-11-25T01:45:34;26.90;40.20
74336;DHT22;62755;-33.398;-70.572;2022-11-25T01:48:11;27.00;39.90
74336;DHT22;62755;-33.398;-70.572;2022-11-25T01:50:43;26.90;40.20
74336;DHT22;62755;-33.398;-70.572;2022-11-25T01:53:16;26.90;40.40
74336;DHT22;62755;-33.398;-70.572;2022-11-25T01:55:51;26.80;40.80
74336;DHT22;62755;-33.398;-70.572;2022-11-25T01:58:24;26.80;40.80
74336;DHT22;62755;-33.398;-70.572;2022-11-25T02:00:54;26.70;40.90
74336;DHT22;62755;-33.398;-70.572;2022-11-25T02:03:26;26.70;40.80
74336;DHT22;62755;-33.398;-70.572;2022-11-25T02:06:02;26.70;40.90
74336;DHT22;62755;-33.398;-70.572;2022-11-25T02:08:36;26.70;40.90
74336;DHT22;62755;-33.398;-70.572;2022-11-25T02:11:06;26.70;41.00
74336;DHT22;62755;-33.398;-70.572;2022-11-25T02:13:35;26.60;41.00
74336;DHT22;62755;-33.398;-70.572;2022-11-25T02:16:06;26.60;41.00
74336;DHT22;62755;-33.398;-70.572;2022-11-25T02:18:35;26.60;41.20
74336;DHT22;62755;-33.398;-70.572;2022-11-25T02:21:06;26.60;41.20
74336;DHT22;62755;-33.398;-70.572;2022-11-25T02:23:41;26.50;41.20
74336;DHT22;62755;-33.398;-70.572;2022-11-25T02:26:14;26.50;41.50
74336;DHT22;62755;-33.398;-70.572;2022-11-25T02:28:43;26.40;41.30
74336;DHT22;62755;-33.398;-70.572;2022-11-25T02:31:19;26.40;41.40
74336;DHT22;62755;-33.398;-70.572;2022-11-25T02:33:48;26.40;41.70
74336;DHT22;62755;-33.398;-70.572;2022-11-25T02:36:20;26.30;41.50
74336;DHT22;62755;-33.398;-70.572;2022-11-25T02:38:53;26.20;41.80
74336;DHT22;62755;-33.398;-70.572;2022-11-25T02:41:28;26.10;42.00
74336;DHT22;62755;-33.398;-70.572;2022-11-25T02:43:59;26.10;42.10
74336;DHT22;62755;-33.398;-70.572;2022-11-25T02:46:29;26.00;42.00
74336;DHT22;62755;-33.398;-70.572;2022-11-25T02:48:59;26.00;42.10
74336;DHT22;62755;-33.398;-70.572;2022-11-25T02:51:30;26.00;42.10
74336;DHT22;62755;-33.398;-70.572;2022-11-25T02:54:00;26.00;42.00
74336;DHT22;62755;-33.398;-70.572;2022-11-25T02:56:33;26.00;42.00
74336;DHT22;62755;-33.398;-70.572;2022-11-25T02:59:03;26.10;42.00
74336;DHT22;62755;-33.398;-70.572;2022-11-25T03:01:33;26.10;41.80
74336;DHT22;62755;-33.398;-70.572;2022-11-25T03:04:02;26.10;41.90
74336;DHT22;62755;-33.398;-70.572;2022-11-25T03:06:32;26.10;41.90
74336;DHT22;62755;-33.398;-70.572;2022-11-25T03:09:02;26.00;41.90
74336;DHT22;62755;-33.398;-70.572;2022-11-25T03:11:34;26.00;42.00
74336;DHT22;62755;-33.398;-70.572;2022-11-25T03:14:19;26.00;42.00
74336;DHT22;62755;-33.398;-70.572;2022-11-25T03:16:49;26.00;42.00
74336;DHT22;62755;-33.398;-70.572;2022-11-25T03:19:19;26.00;41.90
74336;DHT22;62755;-33.398;-70.572;2022-11-25T03:21:48;26.00;41.90
74336;DHT22;62755;-33.398;-70.572;2022-11-25T03:24:18;26.00;41.90
74336;DHT22;62755;-33.398;-70.572;2022-11-25T03:26:49;26.00;42.00
74336;DHT22;62755;-33.398;-70.572;2022-11-25T03:29:19;25.90;42.20
74336;DHT22;62755;-33.398;-70.572;2022-11-25T03:31:48;25.90;42.20
74336;DHT22;62755;-33.398;-70.572;2022-11-25T03:34:18;25.80;42.20
74336;DHT22;62755;-33.398;-70.572;2022-11-25T03:36:47;25.80;42.30
74336;DHT22;62755;-33.398;-70.572;2022-11-25T03:39:17;25.70;42.40
74336;DHT22;62755;-33.398;-70.572;2022-11-25T03:41:48;25.60;42.60
74336;DHT22;62755;-33.398;-70.572;2022-11-25T03:44:18;25.50;42.80
74336;DHT22;62755;-33.398;-70.572;2022-11-25T03:46:48;25.60;42.80
74336;DHT22;62755;-33.398;-70.572;2022-11-25T03:49:17;25.50;42.80
74336;DHT22;62755;-33.398;-70.572;2022-11-25T03:51:48;25.50;42.80
74336;DHT22;62755;-33.398;-70.572;2022-11-25T03:54:18;25.50;42.80
74336;DHT22;62755;-33.398;-70.572;2022-11-25T03:56:49;25.50;42.80
74336;DHT22;62755;-33.398;-70.572;2022-11-25T03:59:19;25.50;42.80
74336;DHT22;62755;-33.398;-70.572;2022-11-25T04:01:48;25.40;43.00
74336;DHT22;62755;-33.398;-70.572;2022-11-25T04:04:18;25.20;43.20
74336;DHT22;62755;-33.398;-70.572;2022-11-25T04:06:47;25.20;43.30
74336;DHT22;62755;-33.398;-70.572;2022-11-25T04:09:17;25.30;43.20
74336;DHT22;62755;-33.398;-70.572;2022-11-25T04:11:48;25.30;43.20
74336;DHT22;62755;-33.398;-70.572;2022-11-25T04:14:33;25.40;43.20
74336;DHT22;62755;-33.398;-70.572;2022-11-25T04:17:03;25.50;43.00
74336;DHT22;62755;-33.398;-70.572;2022-11-25T04:19:32;25.60;43.00
74336;DHT22;62755;-33.398;-70.572;2022-11-25T04:22:02;25.60;42.90
74336;DHT22;62755;-33.398;-70.572;2022-11-25T04:24:31;25.80;42.80
74336;DHT22;62755;-33.398;-70.572;2022-11-25T04:27:03;25.80;42.70
74336;DHT22;62755;-33.398;-70.572;2022-11-25T04:29:32;25.80;42.80
74336;DHT22;62755;-33.398;-70.572;2022-11-25T04:32:02;25.80;42.80
74336;DHT22;62755;-33.398;-70.572;2022-11-25T04:34:32;25.70;42.90
74336;DHT22;62755;-33.398;-70.572;2022-11-25T04:37:01;25.70;43.00
74336;DHT22;62755;-33.398;-70.572;2022-11-25T04:39:30;25.70;42.90
74336;DHT22;62755;-33.398;-70.572;2022-11-25T04:42:02;25.70;42.80
74336;DHT22;62755;-33.398;-70.572;2022-11-25T04:44:47;25.60;43.00
74336;DHT22;62755;-33.398;-70.572;2022-11-25T04:47:17;25.60;43.10
74336;DHT22;62755;-33.398;-70.572;2022-11-25T04:49:46;25.60;43.10
74336;DHT22;62755;-33.398;-70.572;2022-11-25T04:52:16;25.50;43.20
74336;DHT22;62755;-33.398;-70.572;2022-11-25T04:54:45;25.50;43.10
74336;DHT22;62755;-33.398;-70.572;2022-11-25T04:57:17;25.50;43.20
74336;DHT22;62755;-33.398;-70.572;2022-11-25T04:59:46;25.60;43.20
74336;DHT22;62755;-33.398;-70.572;2022-11-25T05:02:17;25.50;43.10
74336;DHT22;62755;-33.398;-70.572;2022-11-25T05:04:50;25.50;43.10
74336;DHT22;62755;-33.398;-70.572;2022-11-25T05:07:21;25.50;42.90
74336;DHT22;62755;-33.398;-70.572;2022-11-25T05:09:51;25.50;42.90
74336;DHT22;62755;-33.398;-70.572;2022-11-25T05:12:24;25.40;42.80
74336;DHT22;62755;-33.398;-70.572;2022-11-25T05:14:54;25.30;43.00
74336;DHT22;62755;-33.398;-70.572;2022-11-25T05:17:24;25.30;43.10
74336;DHT22;62755;-33.398;-70.572;2022-11-25T05:19:54;25.20;43.20
74336;DHT22;62755;-33.398;-70.572;2022-11-25T05:22:24;25.20;43.30
74336;DHT22;62755;-33.398;-70.572;2022-11-25T05:24:54;25.30;43.40
74336;DHT22;62755;-33.398;-70.572;2022-11-25T05:27:26;25.20;43.60
74336;DHT22;62755;-33.398;-70.572;2022-11-25T05:29:55;25.20;43.70
74336;DHT22;62755;-33.398;-70.572;2022-11-25T05:32:25;25.20;43.70
74336;DHT22;62755;-33.398;-70.572;2022-11-25T05:34:54;25.30;43.80
74336;DHT22;62755;-33.398;-70.572;2022-11-25T05:37:24;25.30;43.80
74336;DHT22;62755;-33.398;-70.572;2022-11-25T05:39:53;25.30;43.90
74336;DHT22;62755;-33.398;-70.572;2022-11-25T05:42:24;25.30;43.90
74336;DHT22;62755;-33.398;-70.572;2022-11-25T05:44:54;25.30;43.90
74336;DHT22;62755;-33.398;-70.572;2022-11-25T05:47:23;25.30;43.70
74336;DHT22;62755;-33.398;-70.572;2022-11-25T05:49:53;25.20;43.80
74336;DHT22;62755;-33.398;-70.572;2022-11-25T05:52:22;25.20;43.70
74336;DHT22;62755;-33.398;-70.572;2022-11-25T05:54:52;25.10;43.70
74336;DHT22;62755;-33.398;-70.572;2022-11-25T05:57:21;25.10;43.70
74336;DHT22;62755;-33.398;-70.572;2022-11-25T05:59:53;25.10;43.70
74336;DHT22;62755;-33.398;-70.572;2022-11-25T06:02:22;25.10;43.70
74336;DHT22;62755;-33.398;-70.572;2022-11-25T06:04:52;25.00;43.70
74336;DHT22;62755;-33.398;-70.572;2022-11-25T06:07:21;25.00;43.90
74336;DHT22;62755;-33.398;-70.572;2022-11-25T06:09:51;24.90;43.90
74336;DHT22;62755;-33.398;-70.572;2022-11-25T06:12:21;24.80;44.00
74336;DHT22;62755;-33.398;-70.572;2022-11-25T06:14:52;24.80;44.10
74336;DHT22;62755;-33.398;-70.572;2022-11-25T06:17:22;24.80;44.20
74336;DHT22;62755;-33.398;-70.572;2022-11-25T06:19:51;24.80;44.20
74336;DHT22;62755;-33.398;-70.572;2022-11-25T06:22:20;24.80;44.30
74336;DHT22;62755;-33.398;-70.572;2022-11-25T06:24:50;24.90;44.40
74336;DHT22;62755;-33.398;-70.572;2022-11-25T06:27:19;25.00;44.30
74336;DHT22;62755;-33.398;-70.572;2022-11-25T06:29:49;24.90;44.40
74336;DHT22;62755;-33.398;-70.572;2022-11-25T06:32:21;24.90;44.30
74336;DHT22;62755;-33.398;-70.572;2022-11-25T06:34:50;24.90;44.40
74336;DHT22;62755;-33.398;-70.572;2022-11-25T06:37:20;24.80;44.40
74336;DHT22;62755;-33.398;-70.572;2022-11-25T06:39:49;24.90;44.30
74336;DHT22;62755;-33.398;-70.572;2022-11-25T06:42:19;25.00;44.30
74336;DHT22;62755;-33.398;-70.572;2022-11-25T06:44:48;25.00;44.20
74336;DHT22;62755;-33.398;-70.572;2022-11-25T06:47:20;25.00;44.10
74336;DHT22;62755;-33.398;-70.572;2022-11-25T06:49:49;25.00;44.10
74336;DHT22;62755;-33.398;-70.572;2022-11-25T06:52:19;25.00;44.20
74336;DHT22;62755;-33.398;-70.572;2022-11-25T06:54:49;25.00;44.30
74336;DHT22;62755;-33.398;-70.572;2022-11-25T06:57:19;25.00;44.20
74336;DHT22;62755;-33.398;-70.572;2022-11-25T06:59:49;25.00;44.10
74336;DHT22;62755;-33.398;-70.572;2022-11-25T07:02:20;25.00;44.20
74336;DHT22;62755;-33.398;-70.572;2022-11-25T07:04:50;25.00;44.40
74336;DHT22;62755;-33.398;-70.572;2022-11-25T07:07:20;25.00;44.30
74336;DHT22;62755;-33.398;-70.572;2022-11-25T07:09:49;24.80;44.50
74336;DHT22;62755;-33.398;-70.572;2022-11-25T07:12:19;24.80;44.60
74336;DHT22;62755;-33.398;-70.572;2022-11-25T07:14:50;24.80;44.70
74336;DHT22;62755;-33.398;-70.572;2022-11-25T07:17:21;24.80;45.30
74336;DHT22;62755;-33.398;-70.572;2022-11-25T07:19:51;24.70;45.50
74336;DHT22;62755;-33.398;-70.572;2022-11-25T07:22:20;24.70;45.30
74336;DHT22;62755;-33.398;-70.572;2022-11-25T07:24:50;24.70;45.40
74336;DHT22;62755;-33.398;-70.572;2022-11-25T07:27:19;24.70;45.50
74336;DHT22;62755;-33.398;-70.572;2022-11-25T07:29:48;24.70;45.50
74336;DHT22;62755;-33.398;-70.572;2022-11-25T07:32:18;24.60;45.60
74336;DHT22;62755;-33.398;-70.572;2022-11-25T07:34:51;24.60;45.70
74336;DHT22;62755;-33.398;-70.572;2022-11-25T07:37:21;24.60;45.80
74336;DHT22;62755;-33.398;-70.572;2022-11-25T07:39:50;24.60;45.50
74336;DHT22;62755;-33.398;-70.572;2022-11-25T07:42:20;24.60;45.60
74336;DHT22;62755;-33.398;-70.572;2022-11-25T07:44:49;24.60;45.70
74336;DHT22;62755;-33.398;-70.572;2022-11-25T07:47:19;24.60;45.70
74336;DHT22;62755;-33.398;-70.572;2022-11-25T07:49:50;24.50;45.90
74336;DHT22;62755;-33.398;-70.572;2022-11-25T07:52:20;24.50;45.90
74336;DHT22;62755;-33.398;-70.572;2022-11-25T07:54:49;24.60;45.90
74336;DHT22;62755;-33.398;-70.572;2022-11-25T07:57:19;24.60;45.70
74336;DHT22;62755;-33.398;-70.572;2022-11-25T07:59:48;24.70;45.70
74336;DHT22;62755;-33.398;-70.572;2022-11-25T08:02:18;24.70;45.70
74336;DHT22;62755;-33.398;-70.572;2022-11-25T08:04:48;24.70;45.70
74336;DHT22;62755;-33.398;-70.572;2022-11-25T08:07:19;24.70;45.70
74336;DHT22;62755;-33.398;-70.572;2022-11-25T08:09:49;24.60;45.70
74336;DHT22;62755;-33.398;-70.572;2022-11-25T08:12:19;24.60;45.70
74336;DHT22;62755;-33.398;-70.572;2022-11-25T08:14:48;24.60;45.60
74336;DHT22;62755;-33.398;-70.572;2022-11-25T08:17:18;24.60;45.70
74336;DHT22;62755;-33.398;-70.572;2022-11-25T08:19:47;24.60;45.70
74336;DHT22;62755;-33.398;-70.572;2022-11-25T08:22:18;24.70;45.70
74336;DHT22;62755;-33.398;-70.572;2022-11-25T08:24:48;24.70;45.50
74336;DHT22;62755;-33.398;-70.572;2022-11-25T08:27:17;24.70;45.50
74336;DHT22;62755;-33.398;-70.572;2022-11-25T08:29:47;24.60;45.70
74336;DHT22;62755;-33.398;-70.572;2022-11-25T08:32:16;24.60;45.60
74336;DHT22;62755;-33.398;-70.572;2022-11-25T08:34:46;24.60;45.70
74336;DHT22;62755;-33.398;-70.572;2022-11-25T08:37:15;24.50;45.60
74336;DHT22;62755;-33.398;-70.572;2022-11-25T08:39:48;24.50;45.50
74336;DHT22;62755;-33.398;-70.572;2022-11-25T08:42:18;24.50;45.70
74336;DHT22;62755;-33.398;-70.572;2022-11-25T08:44:51;24.40;45.70
74336;DHT22;62755;-33.398;-70.572;2022-11-25T08:47:21;24.50;45.70
74336;DHT22;62755;-33.398;-70.572;2022-11-25T08:49:52;24.40;45.70
74336;DHT22;62755;-33.398;-70.572;2022-11-25T08:52:21;24.40;45.70
74336;DHT22;62755;-33.398;-70.572;2022-11-25T08:54:53;24.40;45.80
74336;DHT22;62755;-33.398;-70.572;2022-11-25T08:57:22;24.40;46.00
74336;DHT22;62755;-33.398;-70.572;2022-11-25T08:59:52;24.40;45.80
74336;DHT22;62755;-33.398;-70.572;2022-11-25T09:02:22;24.40;45.90
74336;DHT22;62755;-33.398;-70.572;2022-11-25T09:04:51;24.50;45.90
74336;DHT22;62755;-33.398;-70.572;2022-11-25T09:07:21;24.50;45.60
74336;DHT22;62755;-33.398;-70.572;2022-11-25T09:09:52;24.40;45.50
74336;DHT22;62755;-33.398;-70.572;2022-11-25T09:12:22;24.20;45.70
74336;DHT22;62755;-33.398;-70.572;2022-11-25T09:14:51;24.00;45.90
74336;DHT22;62755;-33.398;-70.572;2022-11-25T09:17:21;23.80;46.40
74336;DHT22;62755;-33.398;-70.572;2022-11-25T09:19:50;23.60;46.60
74336;DHT22;62755;-33.398;-70.572;2022-11-25T09:22:20;23.60;46.70
74336;DHT22;62755;-33.398;-70.572;2022-11-25T09:24:51;23.60;46.40
74336;DHT22;62755;-33.398;-70.572;2022-11-25T09:27:21;23.60;46.70
74336;DHT22;62755;-33.398;-70.572;2022-11-25T09:29:50;23.60;46.40
74336;DHT22;62755;-33.398;-70.572;2022-11-25T09:32:20;23.60;46.50
74336;DHT22;62755;-33.398;-70.572;2022-11-25T09:34:49;23.60;46.70
74336;DHT22;62755;-33.398;-70.572;2022-11-25T09:37:19;23.50;47.00
74336;DHT22;62755;-33.398;-70.572;2022-11-25T09:39:48;23.50;47.10
74336;DHT22;62755;-33.398;-70.572;2022-11-25T09:42:30;23.60;46.80
74336;DHT22;62755;-33.398;-70.572;2022-11-25T09:45:21;23.80;46.60
74336;DHT22;62755;-33.398;-70.572;2022-11-25T09:48:23;23.80;46.40
74336;DHT22;62755;-33.398;-70.572;2022-11-25T09:51:00;23.90;46.40
74336;DHT22;62755;-33.398;-70.572;2022-11-25T09:53:41;24.00;46.20
74336;DHT22;62755;-33.398;-70.572;2022-11-25T09:56:17;24.00;46.00
74336;DHT22;62755;-33.398;-70.572;2022-11-25T09:58:56;24.00;46.00
74336;DHT22;62755;-33.398;-70.572;2022-11-25T10:01:29;23.90;46.20
74336;DHT22;62755;-33.398;-70.572;2022-11-25T10:04:03;23.90;46.20
74336;DHT22;62755;-33.398;-70.572;2022-11-25T10:06:39;23.70;46.20
74336;DHT22;62755;-33.398;-70.572;2022-11-25T10:09:12;23.60;46.50
74336;DHT22;62755;-33.398;-70.572;2022-11-25T10:11:49;23.60;46.70
74336;DHT22;62755;-33.398;-70.572;2022-11-25T10:14:28;23.50;46.70
74336;DHT22;62755;-33.398;-70.572;2022-11-25T10:17:06;23.50;47.00
74336;DHT22;62755;-33.398;-70.572;2022-11-25T10:19:46;23.60;46.80
74336;DHT22;62755;-33.398;-70.572;2022-11-25T10:22:23;23.60;46.80
74336;DHT22;62755;-33.398;-70.572;2022-11-25T10:24:56;23.60;47.10
74336;DHT22;62755;-33.398;-70.572;2022-11-25T10:27:30;23.50;46.70
74336;DHT22;62755;-33.398;-70.572;2022-11-25T10:30:10;23.50;47.20
74336;DHT22;62755;-33.398;-70.572;2022-11-25T10:32:43;23.50;47.80
74336;DHT22;62755;-33.398;-70.572;2022-11-25T10:35:27;23.50;47.40
74336;DHT22;62755;-33.398;-70.572;2022-11-25T10:38:00;23.60;47.60
74336;DHT22;62755;-33.398;-70.572;2022-11-25T10:40:30;23.80;47.30
74336;DHT22;62755;-33.398;-70.572;2022-11-25T10:43:04;24.00;47.20
74336;DHT22;62755;-33.398;-70.572;2022-11-25T10:45:45;24.10;47.10
74336;DHT22;62755;-33.398;-70.572;2022-11-25T10:48:32;24.20;46.90
74336;DHT22;62755;-33.398;-70.572;2022-11-25T10:51:11;24.40;46.70
74336;DHT22;62755;-33.398;-70.572;2022-11-25T10:54:09;24.40;46.40
74336;DHT22;62755;-33.398;-70.572;2022-11-25T10:56:57;24.40;46.30
74336;DHT22;62755;-33.398;-70.572;2022-11-25T10:59:31;24.40;46.10
74336;DHT22;62755;-33.398;-70.572;2022-11-25T11:02:17;24.50;46.10
74336;DHT22;62755;-33.398;-70.572;2022-11-25T11:04:56;24.50;45.70
74336;DHT22;62755;-33.398;-70.572;2022-11-25T11:07:28;24.50;45.80
74336;DHT22;62755;-33.398;-70.572;2022-11-25T11:10:17;24.50;45.50
74336;DHT22;62755;-33.398;-70.572;2022-11-25T11:12:55;24.50;45.50
74336;DHT22;62755;-33.398;-70.572;2022-11-25T11:15:26;24.60;45.70
74336;DHT22;62755;-33.398;-70.572;2022-11-25T11:17:59;24.60;45.50
74336;DHT22;62755;-33.398;-70.572;2022-11-25T11:20:29;24.70;45.40
74336;DHT22;62755;-33.398;-70.572;2022-11-25T11:23:02;24.80;45.30
74336;DHT22;62755;-33.398;-70.572;2022-11-25T11:25:34;24.80;45.40
74336;DHT22;62755;-33.398;-70.572;2022-11-25T11:28:24;24.80;45.30
74336;DHT22;62755;-33.398;-70.572;2022-11-25T11:30:56;25.00;45.30
74336;DHT22;62755;-33.398;-70.572;2022-11-25T11:33:35;25.00;45.30
74336;DHT22;62755;-33.398;-70.572;2022-11-25T11:36:18;25.00;45.30
74336;DHT22;62755;-33.398;-70.572;2022-11-25T11:38:53;25.20;45.00
74336;DHT22;62755;-33.398;-70.572;2022-11-25T11:41:32;25.10;45.00
74336;DHT22;62755;-33.398;-70.572;2022-11-25T11:44:10;25.00;45.10
74336;DHT22;62755;-33.398;-70.572;2022-11-25T11:46:55;25.10;45.10
74336;DHT22;62755;-33.398;-70.572;2022-11-25T11:49:54;25.20;44.90
74336;DHT22;62755;-33.398;-70.572;2022-11-25T11:52:34;25.20;44.90
74336;DHT22;62755;-33.398;-70.572;2022-11-25T11:55:33;25.20;44.90
74336;DHT22;62755;-33.398;-70.572;2022-11-25T11:58:08;25.20;44.90
74336;DHT22;62755;-33.398;-70.572;2022-11-25T12:00:44;25.20;45.10
74336;DHT22;62755;-33.398;-70.572;2022-11-25T12:03:19;25.20;45.30
74336;DHT22;62755;-33.398;-70.572;2022-11-25T12:05:52;25.30;45.10
74336;DHT22;62755;-33.398;-70.572;2022-11-25T12:08:29;25.30;45.00
74336;DHT22;62755;-33.398;-70.572;2022-11-25T12:11:02;25.20;45.40
74336;DHT22;62755;-33.398;-70.572;2022-11-25T12:13:39;25.20;45.50
74336;DHT22;62755;-33.398;-70.572;2022-11-25T12:16:14;25.20;45.70
74336;DHT22;62755;-33.398;-70.572;2022-11-25T12:18:48;25.20;45.30
74336;DHT22;62755;-33.398;-70.572;2022-11-25T12:21:32;25.20;45.30
74336;DHT22;62755;-33.398;-70.572;2022-11-25T12:24:09;25.30;45.30
74336;DHT22;62755;-33.398;-70.572;2022-11-25T12:26:47;25.30;45.30
74336;DHT22;62755;-33.398;-70.572;2022-11-25T12:29:23;25.40;45.40
74336;DHT22;62755;-33.398;-70.572;2022-11-25T12:31:52;25.40;45.20
74336;DHT22;62755;-33.398;-70.572;2022-11-25T12:34:30;25.40;45.10
74336;DHT22;62755;-33.398;-70.572;2022-11-25T12:37:11;25.30;45.20
74336;DHT22;62755;-33.398;-70.572;2022-11-25T12:39:47;25.40;45.20
74336;DHT22;62755;-33.398;-70.572;2022-11-25T12:42:22;25.50;45.20
74336;DHT22;62755;-33.398;-70.572;2022-11-25T12:45:03;25.50;44.90
74336;DHT22;62755;-33.398;-70.572;2022-11-25T12:47:33;25.60;45.00
74336;DHT22;62755;-33.398;-70.572;2022-11-25T12:50:03;25.60;44.90
74336;DHT22;62755;-33.398;-70.572;2022-11-25T12:52:46;25.60;44.50
74336;DHT22;62755;-33.398;-70.572;2022-11-25T12:55:18;25.60;44.80
74336;DHT22;62755;-33.398;-70.572;2022-11-25T12:58:01;25.60;45.00
74336;DHT22;62755;-33.398;-70.572;2022-11-25T13:00:45;25.60;44.60
74336;DHT22;62755;-33.398;-70.572;2022-11-25T13:09:54;25.60;44.40
74336;DHT22;62755;-33.398;-70.572;2022-11-25T13:12:38;25.60;44.50
74336;DHT22;62755;-33.398;-70.572;2022-11-25T13:15:25;25.80;44.50
74336;DHT22;62755;-33.398;-70.572;2022-11-25T13:17:59;25.90;44.00
74336;DHT22;62755;-33.398;-70.572;2022-11-25T13:20:45;25.90;44.00
74336;DHT22;62755;-33.398;-70.572;2022-11-25T13:23:26;26.00;44.00
74336;DHT22;62755;-33.398;-70.572;2022-11-25T13:26:35;26.00;44.00
74336;DHT22;62755;-33.398;-70.572;2022-11-25T13:31:55;26.00;43.60
74336;DHT22;62755;-33.398;-70.572;2022-11-25T13:34:27;26.00;43.30
74336;DHT22;62755;-33.398;-70.572;2022-11-25T13:36:58;26.10;43.20
74336;DHT22;62755;-33.398;-70.572;2022-11-25T13:39:30;26.10;43.30
74336;DHT22;62755;-33.398;-70.572;2022-11-25T13:42:04;26.10;43.00
74336;DHT22;62755;-33.398;-70.572;2022-11-25T13:44:49;26.20;43.40
74336;DHT22;62755;-33.398;-70.572;2022-11-25T13:47:30;26.30;43.20
74336;DHT22;62755;-33.398;-70.572;2022-11-25T13:50:02;26.40;43.00
74336;DHT22;62755;-33.398;-70.572;2022-11-25T13:52:42;26.40;42.60
74336;DHT22;62755;-33.398;-70.572;2022-11-25T13:55:29;26.40;42.60
74336;DHT22;62755;-33.398;-70.572;2022-11-25T13:58:13;26.40;42.50
74336;DHT22;62755;-33.398;-70.572;2022-11-25T14:01:01;26.50;42.60
74336;DHT22;62755;-33.398;-70.572;2022-11-25T14:03:52;26.60;42.40
74336;DHT22;62755;-33.398;-70.572;2022-11-25T14:06:48;26.60;42.10
74336;DHT22;62755;-33.398;-70.572;2022-11-25T14:09:43;26.60;42.00
74336;DHT22;62755;-33.398;-70.572;2022-11-25T14:12:44;26.60;42.00
74336;DHT22;62755;-33.398;-70.572;2022-11-25T14:15:35;26.60;42.20
74336;DHT22;62755;-33.398;-70.572;2022-11-25T14:18:34;26.70;42.00
74336;DHT22;62755;-33.398;-70.572;2022-11-25T14:21:13;26.80;41.80
74336;DHT22;62755;-33.398;-70.572;2022-11-25T14:24:05;26.80;41.90
74336;DHT22;62755;-33.398;-70.572;2022-11-25T14:26:39;26.90;41.50
74336;DHT22;62755;-33.398;-70.572;2022-11-25T14:29:15;26.90;41.70
74336;DHT22;62755;-33.398;-70.572;2022-11-25T14:31:50;26.90;41.50
74336;DHT22;62755;-33.398;-70.572;2022-11-25T14:34:26;27.00;41.50
74336;DHT22;62755;-33.398;-70.572;2022-11-25T14:37:00;27.10;41.40
74336;DHT22;62755;-33.398;-70.572;2022-11-25T14:39:36;27.20;41.20
74336;DHT22;62755;-33.398;-70.572;2022-11-25T14:42:09;27.20;40.80
74336;DHT22;62755;-33.398;-70.572;2022-11-25T14:44:45;27.20;40.90
74336;DHT22;62755;-33.398;-70.572;2022-11-25T14:47:21;27.30;40.90
74336;DHT22;62755;-33.398;-70.572;2022-11-25T14:49:52;27.30;40.90
74336;DHT22;62755;-33.398;-70.572;2022-11-25T14:52:24;27.40;40.90
74336;DHT22;62755;-33.398;-70.572;2022-11-25T14:54:56;27.50;40.60
74336;DHT22;62755;-33.398;-70.572;2022-11-25T14:57:28;27.50;40.60
74336;DHT22;62755;-33.398;-70.572;2022-11-25T15:00:03;27.50;40.40
74336;DHT22;62755;-33.398;-70.572;2022-11-25T15:02:38;27.70;40.10
74336;DHT22;62755;-33.398;-70.572;2022-11-25T15:05:18;27.80;40.00
74336;DHT22;62755;-33.398;-70.572;2022-11-25T15:07:56;27.90;39.40
74336;DHT22;62755;-33.398;-70.572;2022-11-25T15:10:38;28.00;39.30
74336;DHT22;62755;-33.398;-70.572;2022-11-25T15:13:29;28.10;39.00
74336;DHT22;62755;-33.398;-70.572;2022-11-25T15:16:06;28.10;38.50
74336;DHT22;62755;-33.398;-70.572;2022-11-25T15:18:38;28.10;38.20
74336;DHT22;62755;-33.398;-70.572;2022-11-25T15:21:11;28.10;38.20
74336;DHT22;62755;-33.398;-70.572;2022-11-25T15:23:42;28.30;38.00
74336;DHT22;62755;-33.398;-70.572;2022-11-25T15:26:17;28.30;38.30
74336;DHT22;62755;-33.398;-70.572;2022-11-25T15:28:51;28.50;38.20
74336;DHT22;62755;-33.398;-70.572;2022-11-25T15:31:24;28.50;38.50
74336;DHT22;62755;-33.398;-70.572;2022-11-25T15:33:58;28.60;38.00
74336;DHT22;62755;-33.398;-70.572;2022-11-25T15:36:29;28.70;37.40